Time;durP1;ratioP1;P1;durP2;ratioP2;P2;SDS_P1;SDS_P2;PMS_P1;PMS_P2;Temp;Humidity;BMP_temperature;BMP_pressure;BME280_temperature;BME280_humidity;BME280_pressure;Samples;Min_cycle;Max_cycle;Signal;HPM_P1;HPM_P2
2021/01/31 00:00:11;;;;;;;3.55;2.28;;;10.70;65.50;;;;;;5065588;28;20073;-35
2021/01/31 00:02:37;;;;;;;2.60;2.28;;;10.70;65.20;;;;;;5065767;28;20036;-35
2021/01/31 00:05:04;;;;;;;3.53;2.40;;;10.60;65.10;;;;;;5065810;28;20129;-36
2021/01/31 00:07:30;;;;;;;2.20;1.90;;;10.70;65.90;;;;;;5065868;28;20056;-36
2021/01/31 00:09:57;;;;;;;3.95;2.47;;;10.60;65.10;;;;;;5065571;28;20262;-35
2021/01/31 00:12:23;;;;;;;2.70;2.10;;;10.70;65.30;;;;;;5066477;28;20063;-36
2021/01/31 00:14:49;;;;;;;3.95;2.50;;;10.60;65.30;;;;;;5065450;28;20046;-36
2021/01/31 00:17:15;;;;;;;3.00;2.28;;;10.60;65.30;;;;;;5065676;28;20442;-35
2021/01/31 00:19:41;;;;;;;5.15;2.83;;;10.60;65.30;;;;;;5065598;28;20021;-35
2021/01/31 00:22:07;;;;;;;3.58;2.20;;;10.60;65.30;;;;;;5065100;28;20072;-35
2021/01/31 00:24:34;;;;;;;3.50;2.60;;;10.60;65.50;;;;;;5067114;28;20041;-36
2021/01/31 00:27:00;;;;;;;3.58;2.42;;;10.60;65.30;;;;;;5065518;28;20027;-35
2021/01/31 00:29:27;;;;;;;3.35;2.90;;;10.60;65.20;;;;;;5065137;28;20044;-35
2021/01/31 00:31:53;;;;;;;3.63;2.13;;;10.60;65.20;;;;;;5063737;28;20033;-35
2021/01/31 00:34:19;;;;;;;3.42;2.40;;;10.60;65.00;;;;;;5065406;28;20041;-36
2021/01/31 00:36:46;;;;;;;3.27;2.40;;;10.60;65.10;;;;;;5065341;28;20047;-35
2021/01/31 00:39:12;;;;;;;3.10;2.25;;;10.60;65.10;;;;;;5074263;28;20343;-36
2021/01/31 00:41:38;;;;;;;2.70;2.40;;;10.60;65.10;;;;;;5082493;28;20080;-35
2021/01/31 00:44:04;;;;;;;3.03;2.17;;;10.60;65.00;;;;;;5085040;28;20032;-35
2021/01/31 00:46:39;;;;;;;3.13;2.20;;;10.60;65.10;;;;;;5084961;28;20025;-36
2021/01/31 00:49:05;;;;;;;2.83;2.53;;;10.60;65.10;;;;;;5083868;28;20047;-36
2021/01/31 00:51:31;;;;;;;2.63;1.85;;;10.60;65.00;;;;;;5069913;28;20092;-35
2021/01/31 00:53:58;;;;;;;3.35;2.25;;;10.60;64.90;;;;;;5064740;28;20787;-35
2021/01/31 00:56:24;;;;;;;2.65;2.05;;;10.60;65.00;;;;;;5064648;28;20100;-36
2021/01/31 00:58:50;;;;;;;5.30;2.28;;;10.60;65.50;;;;;;5064903;28;20029;-36
2021/01/31 01:01:17;;;;;;;2.80;2.22;;;10.60;64.90;;;;;;5064746;28;20039;-36
2021/01/31 01:03:43;;;;;;;4.18;2.30;;;10.60;65.10;;;;;;5063650;28;20036;-35
2021/01/31 01:06:09;;;;;;;2.75;2.20;;;10.60;64.90;;;;;;5064344;28;20040;-35
2021/01/31 01:08:35;;;;;;;2.33;1.90;;;10.60;64.90;;;;;;5064621;28;20036;-35
2021/01/31 01:11:01;;;;;;;2.78;2.00;;;10.50;64.40;;;;;;5064679;28;20021;-35
2021/01/31 01:13:28;;;;;;;2.33;1.90;;;10.50;64.30;;;;;;5064552;28;20031;-36
2021/01/31 01:15:54;;;;;;;3.45;2.42;;;10.60;64.20;;;;;;5063817;28;20120;-36
2021/01/31 01:18:21;;;;;;;2.70;2.28;;;10.50;64.20;;;;;;5064490;28;20597;-35
2021/01/31 01:20:47;;;;;;;3.05;2.10;;;10.60;64.20;;;;;;5064261;28;20032;-36
2021/01/31 01:23:13;;;;;;;1.88;1.65;;;10.50;64.10;;;;;;5064311;28;20041;-35
2021/01/31 01:25:40;;;;;;;3.22;2.00;;;10.50;64.10;;;;;;5063932;28;20021;-36
2021/01/31 01:28:06;;;;;;;2.75;2.00;;;10.50;64.10;;;;;;5064441;28;20126;-35
2021/01/31 01:30:32;;;;;;;3.22;2.20;;;10.50;64.10;;;;;;5064331;28;20020;-35
2021/01/31 01:32:58;;;;;;;2.60;1.98;;;10.50;64.10;;;;;;5096765;28;20032;-36
2021/01/31 01:35:25;;;;;;;3.28;2.47;;;10.50;64.10;;;;;;5081559;28;20098;-36
2021/01/31 01:37:51;;;;;;;2.97;2.10;;;10.50;64.20;;;;;;5082753;28;20094;-35
2021/01/31 01:40:19;;;;;;;2.90;2.10;;;10.50;64.20;;;;;;5082049;28;20131;-35
2021/01/31 01:42:45;;;;;;;2.95;2.10;;;10.50;64.10;;;;;;5064191;28;20301;-36
2021/01/31 01:45:12;;;;;;;3.03;1.90;;;10.50;64.30;;;;;;5063622;28;20021;-35
2021/01/31 01:47:38;;;;;;;2.33;2.13;;;10.50;64.20;;;;;;5064057;28;20037;-35
2021/01/31 01:50:14;;;;;;;2.88;2.13;;;10.50;64.20;;;;;;5063733;28;20025;-35
2021/01/31 01:52:41;;;;;;;2.15;1.80;;;10.50;64.20;;;;;;5061136;28;20029;-36
2021/01/31 01:55:12;;;;;;;2.78;2.47;;;10.40;64.00;;;;;;5064008;28;20025;-36
2021/01/31 01:57:42;;;;;;;2.97;2.22;;;10.50;64.20;;;;;;5063448;28;20043;-35
2021/01/31 02:00:09;;;;;;;2.60;2.17;;;10.50;64.50;;;;;;5062218;28;20053;-35
2021/01/31 02:02:38;;;;;;;3.40;2.17;;;10.50;64.50;;;;;;5063649;28;20029;-36
2021/01/31 02:05:07;;;;;;;3.00;2.00;;;10.40;64.30;;;;;;5062461;28;20144;-36
2021/01/31 02:07:34;;;;;;;3.35;2.40;;;10.50;64.60;;;;;;5063346;28;20025;-35
2021/01/31 02:10:00;;;;;;;2.60;1.95;;;10.50;64.30;;;;;;5063901;28;20029;-35
2021/01/31 02:12:28;;;;;;;2.83;2.40;;;10.50;64.40;;;;;;5063094;28;20490;-35
2021/01/31 02:14:55;;;;;;;3.22;2.20;;;10.40;64.40;;;;;;5062058;28;20033;-35
2021/01/31 02:17:48;;;;;;;3.75;2.35;;;10.40;64.30;;;;;;5061996;28;20088;-35
2021/01/31 02:20:36;;;;;;;3.85;2.38;;;10.40;64.30;;;;;;5042111;28;20030;-36
2021/01/31 02:23:23;;;;;;;3.47;2.20;;;10.40;64.30;;;;;;5043398;28;20033;-36
2021/01/31 02:26:01;;;;;;;3.33;2.30;;;10.40;64.30;;;;;;5056112;28;20032;-36
2021/01/31 02:28:33;;;;;;;;;;;10.40;64.40;;;;;;5043113;28;20053;-35
2021/01/31 02:31:08;;;;;;;3.85;2.53;;;10.40;64.50;;;;;;5043236;28;19937;-36
2021/01/31 02:34:09;;;;;;;3.40;2.78;;;10.40;64.20;;;;;;5043236;28;20029;-36
2021/01/31 02:36:50;;;;;;;3.47;2.60;;;10.40;64.20;;;;;;5069892;28;20026;-35
2021/01/31 02:39:40;;;;;;;3.50;2.55;;;10.40;64.10;;;;;;5043207;28;20111;-36
2021/01/31 02:42:28;;;;;;;3.45;2.55;;;10.40;64.10;;;;;;5110326;28;20051;-35
2021/01/31 02:45:19;;;;;;;3.10;2.20;;;10.40;64.10;;;;;;5083204;28;20036;-36
2021/01/31 02:48:00;;;;;;;3.03;2.20;;;10.30;64.10;;;;;;5078923;28;20032;-35
2021/01/31 02:50:31;;;;;;;2.88;2.10;;;10.30;64.50;;;;;;5081937;28;20035;-35
2021/01/31 02:53:03;;;;;;;2.75;2.15;;;10.30;64.30;;;;;;5081737;28;20048;-36
2021/01/31 02:55:52;;;;;;;2.83;2.00;;;10.30;64.40;;;;;;5081807;28;20036;-35
2021/01/31 02:58:38;;;;;;;4.15;2.33;;;10.40;64.60;;;;;;5071737;28;20086;-35
2021/01/31 03:01:13;;;;;;;3.08;2.45;;;10.30;64.30;;;;;;5067477;28;20041;-35
2021/01/31 03:04:15;;;;;;;3.13;2.22;;;10.30;64.30;;;;;;5061480;28;20041;-35
2021/01/31 03:06:53;;;;;;;3.28;2.40;;;10.30;64.20;;;;;;5040066;28;20030;-35
2021/01/31 03:09:38;;;;;;;2.80;2.15;;;10.30;64.20;;;;;;5040348;28;20033;-35
2021/01/31 03:12:12;;;;;;;2.70;2.22;;;10.30;64.20;;;;;;5040825;28;20089;-35
2021/01/31 03:14:43;;;;;;;3.13;2.22;;;10.30;64.10;;;;;;5024569;28;20976;-35
2021/01/31 03:17:21;;;;;;;2.72;2.22;;;10.30;64.20;;;;;;5040122;28;20045;-36
2021/01/31 03:20:02;;;;;;;2.58;2.17;;;10.30;64.20;;;;;;5024135;28;20038;-35
2021/01/31 03:22:41;;;;;;;3.00;2.30;;;10.30;64.20;;;;;;5024870;28;20537;-35
2021/01/31 03:25:11;;;;;;;3.78;2.55;;;10.30;64.20;;;;;;5024408;28;20119;-36
2021/01/31 03:27:38;;;;;;;2.50;2.30;;;10.30;64.10;;;;;;5041709;28;20061;-35
2021/01/31 03:30:09;;;;;;;4.10;2.42;;;10.30;64.90;;;;;;5024691;28;20165;-35
2021/01/31 03:32:57;;;;;;;3.17;2.40;;;10.30;64.20;;;;;;5040365;28;20037;-36
2021/01/31 03:35:29;;;;;;;3.75;2.53;;;10.30;64.30;;;;;;5030795;28;20080;-35
2021/01/31 03:38:13;;;;;;;2.33;2.08;;;10.30;64.40;;;;;;5023173;28;20117;-35
2021/01/31 03:40:44;;;;;;;2.80;2.10;;;10.30;64.50;;;;;;5043542;28;20037;-36
2021/01/31 03:43:10;;;;;;;4.13;2.60;;;10.30;64.60;;;;;;5059366;28;20048;-35
2021/01/31 03:45:52;;;;;;;2.35;2.03;;;10.20;64.60;;;;;;5064882;28;20025;-35
2021/01/31 03:48:24;;;;;;;3.03;2.13;;;10.20;64.30;;;;;;5064775;28;20100;-35
2021/01/31 03:50:50;;;;;;;2.47;2.10;;;10.20;64.50;;;;;;5064833;28;20021;-35
2021/01/31 03:53:16;;;;;;;2.70;2.40;;;10.20;64.60;;;;;;5064583;28;20116;-35
2021/01/31 03:55:43;;;;;;;2.45;2.20;;;10.20;64.70;;;;;;5065866;28;20028;-36
2021/01/31 03:58:11;;;;;;;2.65;2.40;;;10.20;64.80;;;;;;5064836;28;20033;-35
2021/01/31 04:00:39;;;;;;;3.30;3.00;;;10.20;64.50;;;;;;5064334;28;20053;-36
2021/01/31 04:03:10;;;;;;;2.72;2.35;;;10.20;64.60;;;;;;5064454;28;20800;-35
2021/01/31 04:05:37;;;;;;;3.30;2.50;;;10.20;64.80;;;;;;5064726;28;20045;-36
2021/01/31 04:08:05;;;;;;;3.53;2.50;;;10.20;64.50;;;;;;5064284;28;20028;-35
2021/01/31 04:10:31;;;;;;;3.70;2.50;;;10.20;64.70;;;;;;5064831;28;20029;-35
2021/01/31 04:12:58;;;;;;;4.18;2.65;;;10.20;64.40;;;;;;5065575;28;20021;-36
2021/01/31 04:15:44;;;;;;;3.03;2.50;;;10.10;65.00;;;;;;5066647;28;20033;-36
2021/01/31 04:18:10;;;;;;;2.70;2.50;;;10.10;64.50;;;;;;5047323;28;20043;-36
2021/01/31 04:20:37;;;;;;;3.40;2.70;;;10.10;64.80;;;;;;5065733;28;20054;-35
2021/01/31 04:23:03;;;;;;;2.97;2.42;;;10.10;64.40;;;;;;5065384;28;20033;-35
2021/01/31 04:25:29;;;;;;;3.13;2.43;;;10.10;64.40;;;;;;5065457;28;20029;-35
2021/01/31 04:27:56;;;;;;;3.90;2.35;;;10.10;64.50;;;;;;5065356;28;20391;-35
2021/01/31 04:30:22;;;;;;;2.70;2.05;;;10.10;64.50;;;;;;5065283;28;20041;-36
2021/01/31 04:32:49;;;;;;;3.55;2.42;;;10.10;64.60;;;;;;5065367;28;20036;-35
2021/01/31 04:35:16;;;;;;;2.95;2.35;;;10.10;64.70;;;;;;5065514;28;20021;-35
2021/01/31 04:37:42;;;;;;;2.95;2.25;;;10.10;64.80;;;;;;5064938;28;20032;-36
2021/01/31 04:40:10;;;;;;;3.15;2.55;;;10.10;64.70;;;;;;5065661;28;20053;-35
2021/01/31 04:42:37;;;;;;;3.60;2.33;;;10.10;64.70;;;;;;5065010;28;20017;-36
2021/01/31 04:45:09;;;;;;;2.83;2.47;;;10.10;64.80;;;;;;5065158;28;20032;-35
2021/01/31 04:48:14;;;;;;;2.83;2.40;;;10.10;65.00;;;;;;5080322;28;20047;-35
2021/01/31 04:51:15;;;;;;;2.85;2.47;;;10.10;64.80;;;;;;5089693;28;20021;-35
2021/01/31 04:54:26;;;;;;;3.13;2.33;;;10.10;64.70;;;;;;5078442;28;20041;-35
2021/01/31 04:57:05;;;;;;;4.32;2.20;;;10.00;64.60;;;;;;5042184;28;20030;-35
2021/01/31 04:59:37;;;;;;;3.65;2.53;;;10.00;64.90;;;;;;5025138;28;20045;-35
2021/01/31 05:02:07;;;;;;;2.92;2.40;;;10.00;64.80;;;;;;5042297;28;20032;-35
2021/01/31 05:04:34;;;;;;;4.13;2.53;;;10.00;64.90;;;;;;5042160;28;20619;-36
2021/01/31 05:07:03;;;;;;;2.72;2.38;;;10.00;64.80;;;;;;5025472;28;20149;-36
2021/01/31 05:09:30;;;;;;;3.80;2.30;;;10.00;65.10;;;;;;5025593;28;20100;-35
2021/01/31 05:12:24;;;;;;;2.65;2.10;;;10.00;65.00;;;;;;5009389;28;20026;-36
2021/01/31 05:14:56;;;;;;;3.47;2.28;;;10.00;65.40;;;;;;5022261;28;20029;-35
2021/01/31 05:17:22;;;;;;;3.25;2.58;;;10.00;65.00;;;;;;5022215;28;20030;-35
2021/01/31 05:19:48;;;;;;;3.35;2.70;;;10.00;65.30;;;;;;5021772;28;20048;-35
2021/01/31 05:22:17;;;;;;;3.35;2.42;;;9.90;65.10;;;;;;5022008;28;20061;-36
2021/01/31 05:24:44;;;;;;;3.58;2.63;;;10.00;65.00;;;;;;5022051;28;20137;-36
2021/01/31 05:27:10;;;;;;;3.00;2.33;;;10.00;65.40;;;;;;5021957;28;20054;-35
2021/01/31 05:29:38;;;;;;;2.92;2.50;;;10.00;65.40;;;;;;5021802;28;20038;-35
2021/01/31 05:32:10;;;;;;;3.67;2.58;;;9.90;65.20;;;;;;5039762;28;20041;-35
2021/01/31 05:34:40;;;;;;;3.50;2.70;;;9.90;65.20;;;;;;5063955;28;20029;-35
2021/01/31 05:37:12;;;;;;;3.63;2.90;;;9.90;65.50;;;;;;5067349;28;20028;-35
2021/01/31 05:39:41;;;;;;;3.17;2.50;;;9.90;65.20;;;;;;5063896;28;20032;-35
2021/01/31 05:42:10;;;;;;;4.03;2.47;;;9.90;65.10;;;;;;5064549;28;20031;-35
2021/01/31 05:44:36;;;;;;;3.33;2.40;;;9.90;65.30;;;;;;5064020;28;20485;-35
2021/01/31 05:47:03;;;;;;;2.92;2.60;;;9.90;65.40;;;;;;5063806;28;20029;-35
2021/01/31 05:49:55;;;;;;;3.20;2.80;;;9.90;65.60;;;;;;5062244;28;20025;-36
2021/01/31 05:52:21;;;;;;;4.03;2.75;;;9.90;65.60;;;;;;5061856;28;20079;-36
2021/01/31 05:54:49;;;;;;;2.47;2.20;;;9.90;65.60;;;;;;5063822;28;20029;-36
2021/01/31 05:57:22;;;;;;;;;;;9.90;65.60;;;;;;5064299;28;20560;-35
2021/01/31 05:59:48;;;;;;;3.78;2.40;;;9.90;65.40;;;;;;5063350;28;19947;-35
2021/01/31 06:02:40;;;;;;;2.50;2.20;;;9.90;65.60;;;;;;5062305;28;20036;-35
2021/01/31 06:05:17;;;;;;;3.10;2.35;;;9.90;65.60;;;;;;5062490;28;20041;-36
2021/01/31 06:07:44;;;;;;;4.95;2.60;;;9.90;65.70;;;;;;5063674;28;20090;-36
2021/01/31 06:10:19;;;;;;;3.55;2.88;;;9.90;65.70;;;;;;5062572;28;20036;-36
2021/01/31 06:12:48;;;;;;;3.28;2.67;;;9.80;65.60;;;;;;5062297;28;20021;-36
2021/01/31 06:15:23;;;;;;;4.43;2.63;;;9.90;65.90;;;;;;5062160;28;20029;-36
2021/01/31 06:18:27;;;;;;;4.07;2.80;;;9.80;66.50;;;;;;5062203;28;20710;-35
2021/01/31 06:20:53;;;;;;;3.13;2.53;;;9.90;65.90;;;;;;5063190;28;20032;-35
2021/01/31 06:23:29;;;;;;;3.28;2.72;;;9.80;66.00;;;;;;5062919;28;20033;-36
2021/01/31 06:25:55;;;;;;;3.17;2.50;;;9.80;66.00;;;;;;5063360;28;20033;-36
2021/01/31 06:28:23;;;;;;;4.47;3.03;;;9.80;65.80;;;;;;5062044;28;20029;-36
2021/01/31 06:31:05;;;;;;;4.43;3.08;;;9.80;65.80;;;;;;5062776;28;20093;-35
2021/01/31 06:33:31;;;;;;;3.83;2.80;;;9.80;65.90;;;;;;5061935;28;20029;-35
2021/01/31 06:36:22;;;;;;;3.58;3.05;;;9.80;66.10;;;;;;5063213;28;20032;-35
2021/01/31 06:39:07;;;;;;;3.75;2.75;;;9.80;65.90;;;;;;5053342;28;20171;-35
2021/01/31 06:42:21;;;;;;;3.83;2.70;;;9.80;66.00;;;;;;5063294;28;20029;-35
2021/01/31 06:45:00;;;;;;;3.90;2.70;;;9.80;66.00;;;;;;5039743;28;20048;-35
2021/01/31 06:47:44;;;;;;;2.67;2.42;;;9.80;66.00;;;;;;5040626;28;20030;-36
2021/01/31 06:50:20;;;;;;;3.45;2.60;;;9.80;66.00;;;;;;5040380;28;20056;-35
2021/01/31 06:52:56;;;;;;;4.72;3.30;;;9.80;66.00;;;;;;5028281;28;20033;-35
2021/01/31 06:55:53;;;;;;;5.57;3.17;;;9.80;66.10;;;;;;5023854;28;20045;-35
2021/01/31 06:59:03;;;;;;;4.13;3.03;;;9.80;66.10;;;;;;5040379;28;20026;-36
2021/01/31 07:01:32;;;;;;;3.72;2.80;;;9.80;66.20;;;;;;4942741;29;20048;-35
2021/01/31 07:04:35;;;;;;;5.43;3.20;;;9.80;66.10;;;;;;4943020;29;20040;-35
2021/01/31 07:07:38;;;;;;;5.10;3.35;;;9.80;66.20;;;;;;4943019;29;20552;-35
2021/01/31 07:10:34;;;;;;;3.55;2.78;;;9.80;66.20;;;;;;4942359;29;20071;-35
2021/01/31 07:13:15;;;;;;;4.82;3.08;;;9.80;66.30;;;;;;4945837;29;20103;-35
2021/01/31 07:15:58;;;;;;;4.28;3.03;;;9.80;66.20;;;;;;4945836;29;20440;-35
2021/01/31 07:18:24;;;;;;;3.33;2.47;;;9.80;66.30;;;;;;4946633;29;20118;-35
2021/01/31 07:20:52;;;;;;;4.55;3.40;;;9.80;66.10;;;;;;4962706;28;20069;-35
2021/01/31 07:23:31;;;;;;;3.10;2.55;;;9.80;66.90;;;;;;4969025;28;20069;-35
2021/01/31 07:25:59;;;;;;;5.10;3.17;;;9.70;66.30;;;;;;4970484;28;20066;-35
2021/01/31 07:28:36;;;;;;;4.05;2.50;;;9.70;66.10;;;;;;4969148;28;20041;-35
2021/01/31 07:31:08;;;;;;;4.07;2.90;;;9.70;66.00;;;;;;4969320;28;20031;-35
2021/01/31 07:33:56;;;;;;;4.22;2.78;;;9.70;66.10;;;;;;5065310;28;20013;-35
2021/01/31 07:36:26;;;;;;;4.57;3.00;;;9.70;66.10;;;;;;5065113;28;20036;-35
2021/01/31 07:39:02;;;;;;;4.03;3.20;;;9.70;66.30;;;;;;5066312;28;20025;-35
2021/01/31 07:41:28;;;;;;;3.63;2.85;;;9.70;66.40;;;;;;5071794;28;20036;-35
2021/01/31 07:44:00;;;;;;;4.78;2.50;;;9.70;66.20;;;;;;5065102;28;20040;-35
2021/01/31 07:46:26;;;;;;;4.55;2.85;;;9.70;66.20;;;;;;5064791;28;20047;-35
2021/01/31 07:48:57;;;;;;;3.85;2.88;;;9.70;66.30;;;;;;5064845;28;20029;-35
2021/01/31 07:51:26;;;;;;;3.72;2.97;;;9.70;66.20;;;;;;5065751;28;20036;-35
2021/01/31 07:53:55;;;;;;;3.42;2.90;;;9.70;66.20;;;;;;5065879;28;20524;-35
2021/01/31 07:56:27;;;;;;;3.63;2.75;;;9.70;66.40;;;;;;5064992;28;20029;-35
2021/01/31 07:58:55;;;;;;;3.83;3.03;;;9.70;66.20;;;;;;5065820;28;20059;-35
2021/01/31 08:01:43;;;;;;;3.28;2.55;;;9.70;66.40;;;;;;5064299;28;20033;-35
2021/01/31 08:04:25;;;;;;;4.13;2.60;;;9.70;66.20;;;;;;5065575;28;20045;-35
2021/01/31 08:06:52;;;;;;;3.22;2.92;;;9.70;66.30;;;;;;5065928;28;20033;-35
2021/01/31 08:09:28;;;;;;;4.65;3.05;;;9.70;66.40;;;;;;5065471;28;20063;-36
2021/01/31 08:12:05;;;;;;;3.88;2.70;;;9.70;66.40;;;;;;5065431;28;20033;-36
2021/01/31 08:15:05;;;;;;;4.17;2.97;;;9.70;66.30;;;;;;5065830;28;20025;-35
2021/01/31 08:17:48;;;;;;;3.58;2.75;;;9.70;66.20;;;;;;5065525;28;20246;-36
2021/01/31 08:20:43;;;;;;;4.28;3.20;;;9.70;66.30;;;;;;5065632;28;20051;-36
2021/01/31 08:23:31;;;;;;;3.70;2.95;;;9.70;66.40;;;;;;5065174;28;20501;-36
2021/01/31 08:25:59;;;;;;;4.70;2.92;;;9.70;66.50;;;;;;5064303;28;20560;-37
2021/01/31 08:28:26;;;;;;;4.07;2.60;;;9.70;66.50;;;;;;5065523;28;20025;-36
2021/01/31 08:31:02;;;;;;;3.20;2.58;;;9.60;66.60;;;;;;5063635;28;20021;-37
2021/01/31 08:33:41;;;;;;;3.90;2.53;;;9.70;66.50;;;;;;5072516;28;20045;-37
2021/01/31 08:36:20;;;;;;;4.32;2.90;;;9.70;66.60;;;;;;5083921;28;20048;-37
2021/01/31 08:38:56;;;;;;;3.63;2.92;;;9.70;66.70;;;;;;5080736;28;20025;-36
2021/01/31 08:41:25;;;;;;;3.42;2.90;;;9.60;66.50;;;;;;5083285;28;20127;-36
2021/01/31 08:43:53;;;;;;;4.38;3.03;;;9.70;66.60;;;;;;5085162;28;20037;-37
2021/01/31 08:46:30;;;;;;;3.95;3.00;;;9.70;66.70;;;;;;5085020;28;20029;-36
2021/01/31 08:48:58;;;;;;;3.22;2.40;;;9.70;66.70;;;;;;5083890;28;20033;-36
2021/01/31 08:51:26;;;;;;;3.22;2.60;;;9.60;66.80;;;;;;5084754;28;20092;-36
2021/01/31 08:54:18;;;;;;;3.25;2.60;;;9.60;66.70;;;;;;5085018;28;20039;-36
2021/01/31 08:56:45;;;;;;;4.03;2.85;;;9.60;66.60;;;;;;5080749;28;20094;-36
2021/01/31 08:59:20;;;;;;;3.50;2.67;;;9.60;66.70;;;;;;5063398;28;20033;-36
2021/01/31 09:02:01;;;;;;;4.63;3.22;;;9.70;66.90;;;;;;5063218;28;20033;-36
2021/01/31 09:04:27;;;;;;;3.15;2.80;;;9.70;66.80;;;;;;5063630;28;20033;-36
2021/01/31 09:06:53;;;;;;;4.75;2.67;;;9.60;66.80;;;;;;5063468;28;20084;-37
2021/01/31 09:09:27;;;;;;;3.88;2.67;;;9.60;66.80;;;;;;5063225;28;20056;-36
2021/01/31 09:12:01;;;;;;;3.85;2.92;;;9.60;66.90;;;;;;5078470;28;20116;-36
2021/01/31 09:14:31;;;;;;;4.15;2.92;;;9.60;66.80;;;;;;5083265;28;20457;-36
2021/01/31 09:17:06;;;;;;;4.45;2.78;;;9.60;67.00;;;;;;5083113;28;20037;-37
2021/01/31 09:19:32;;;;;;;3.20;2.65;;;9.60;66.80;;;;;;5084305;28;20021;-36
2021/01/31 09:22:16;;;;;;;3.20;2.72;;;9.60;66.90;;;;;;5084280;28;20024;-36
2021/01/31 09:24:43;;;;;;;3.25;2.30;;;9.60;66.90;;;;;;5082915;28;20067;-36
2021/01/31 09:27:16;;;;;;;3.17;2.88;;;9.60;67.00;;;;;;5083291;28;20028;-36
2021/01/31 09:29:42;;;;;;;4.32;3.13;;;9.60;66.90;;;;;;5083174;28;20025;-36
2021/01/31 09:32:22;;;;;;;4.85;2.90;;;9.60;66.90;;;;;;5084053;28;20091;-36
2021/01/31 09:34:48;;;;;;;3.20;2.78;;;9.60;67.10;;;;;;5082882;28;20442;-36
2021/01/31 09:37:43;;;;;;;3.30;2.63;;;9.60;67.00;;;;;;5082507;28;20117;-36
2021/01/31 09:40:10;;;;;;;2.90;2.70;;;9.60;67.00;;;;;;5074382;28;20033;-37
2021/01/31 09:42:37;;;;;;;3.05;2.75;;;9.60;67.70;;;;;;5082156;28;20696;-37
2021/01/31 09:45:05;;;;;;;3.38;2.38;;;9.60;67.10;;;;;;5082665;28;20052;-37
2021/01/31 09:47:31;;;;;;;3.20;2.20;;;9.60;67.10;;;;;;5082466;28;20476;-37
2021/01/31 09:49:59;;;;;;;3.65;2.80;;;9.60;67.30;;;;;;5080791;28;20029;-37
2021/01/31 09:52:25;;;;;;;3.00;2.63;;;9.60;67.10;;;;;;5072833;28;20040;-37
2021/01/31 09:54:51;;;;;;;3.80;2.92;;;9.60;67.90;;;;;;5062529;28;20033;-37
2021/01/31 09:57:26;;;;;;;4.65;2.60;;;9.60;67.20;;;;;;5063929;28;20048;-37
2021/01/31 10:00:07;;;;;;;2.85;2.28;;;9.60;67.40;;;;;;5062275;28;20124;-36
2021/01/31 10:02:34;;;;;;;4.35;2.80;;;9.60;67.30;;;;;;5063369;28;20032;-37
2021/01/31 10:05:05;;;;;;;4.38;3.20;;;9.60;67.30;;;;;;5063740;28;20036;-36
2021/01/31 10:07:35;;;;;;;3.45;2.90;;;9.60;67.40;;;;;;5063579;28;20025;-36
2021/01/31 10:10:20;;;;;;;3.00;2.67;;;9.60;67.30;;;;;;5062093;28;20029;-37
2021/01/31 10:12:46;;;;;;;3.55;2.67;;;9.60;67.20;;;;;;5063369;28;20070;-37
2021/01/31 10:15:12;;;;;;;3.83;2.80;;;9.60;67.40;;;;;;5079051;28;20055;-36
2021/01/31 10:17:45;;;;;;;3.20;2.53;;;9.60;67.30;;;;;;5063536;28;20032;-36
2021/01/31 10:20:36;;;;;;;3.67;2.80;;;9.60;67.30;;;;;;5063480;28;20040;-36
2021/01/31 10:23:02;;;;;;;3.47;2.70;;;9.60;67.40;;;;;;5061618;28;20119;-36
2021/01/31 10:25:28;;;;;;;3.72;2.65;;;9.60;67.30;;;;;;5063345;28;20029;-36
2021/01/31 10:27:56;;;;;;;3.10;2.72;;;9.60;67.50;;;;;;5063506;28;20033;-36
2021/01/31 10:30:28;;;;;;;3.28;2.80;;;9.60;67.50;;;;;;5063289;28;20527;-36
2021/01/31 10:32:54;;;;;;;4.22;2.80;;;9.60;67.50;;;;;;5070126;28;20086;-36
2021/01/31 10:35:30;;;;;;;3.85;2.78;;;9.60;67.50;;;;;;5061795;28;20025;-37
2021/01/31 10:37:56;;;;;;;2.83;2.58;;;9.60;67.70;;;;;;5063119;28;20089;-36
2021/01/31 10:40:23;;;;;;;3.47;2.60;;;9.60;67.60;;;;;;5063386;28;20098;-36
2021/01/31 10:42:49;;;;;;;3.92;2.60;;;9.60;67.50;;;;;;5061511;28;20025;-36
2021/01/31 10:45:19;;;;;;;3.55;2.67;;;9.60;67.60;;;;;;5063177;28;20056;-36
2021/01/31 10:47:45;;;;;;;3.97;2.97;;;9.60;67.60;;;;;;5061888;28;20032;-36
2021/01/31 10:50:13;;;;;;;3.17;2.50;;;9.60;67.60;;;;;;5066146;28;20036;-36
2021/01/31 10:52:40;;;;;;;3.60;2.90;;;9.60;67.70;;;;;;5067001;28;20309;-36
2021/01/31 10:55:06;;;;;;;3.50;2.35;;;9.60;67.70;;;;;;5065974;28;20036;-36
2021/01/31 10:57:33;;;;;;;3.60;2.58;;;9.60;67.60;;;;;;5067200;28;20600;-37
2021/01/31 10:59:59;;;;;;;3.58;2.40;;;9.60;67.70;;;;;;5066838;28;20067;-37
2021/01/31 11:02:25;;;;;;;3.60;3.05;;;9.50;67.60;;;;;;5066829;28;20028;-37
2021/01/31 11:04:51;;;;;;;4.50;3.10;;;9.60;67.80;;;;;;5065591;28;20029;-37
2021/01/31 11:07:17;;;;;;;3.92;2.42;;;9.50;67.60;;;;;;5067200;28;20025;-37
2021/01/31 11:09:43;;;;;;;3.92;2.50;;;9.60;67.70;;;;;;5066680;28;20033;-37
2021/01/31 11:12:09;;;;;;;4.60;2.88;;;9.50;67.80;;;;;;5067965;28;20039;-37
2021/01/31 11:14:35;;;;;;;4.63;2.97;;;9.60;67.90;;;;;;5066948;28;20032;-37
2021/01/31 11:17:02;;;;;;;3.45;2.80;;;9.60;67.90;;;;;;5066949;28;20064;-37
2021/01/31 11:19:28;;;;;;;3.25;2.55;;;9.60;68.10;;;;;;5066895;28;20036;-37
2021/01/31 11:21:54;;;;;;;4.22;2.70;;;9.50;68.10;;;;;;5066865;28;20037;-37
2021/01/31 11:24:20;;;;;;;3.83;2.80;;;9.50;67.70;;;;;;5066178;28;20037;-37
2021/01/31 11:26:46;;;;;;;3.55;2.67;;;9.60;68.00;;;;;;5066612;28;20021;-37
2021/01/31 11:29:12;;;;;;;3.40;2.65;;;9.50;67.80;;;;;;5066740;28;20033;-36
2021/01/31 11:31:38;;;;;;;3.72;2.70;;;9.60;67.90;;;;;;5066396;28;20040;-38
2021/01/31 11:34:05;;;;;;;2.97;2.60;;;9.50;68.00;;;;;;5066254;28;20513;-36
2021/01/31 11:36:31;;;;;;;3.88;2.60;;;9.60;68.00;;;;;;5066507;28;20075;-37
2021/01/31 11:38:59;;;;;;;3.63;2.60;;;9.60;68.00;;;;;;5066216;28;20033;-37
2021/01/31 11:41:25;;;;;;;4.10;2.60;;;9.50;67.80;;;;;;5074535;28;20032;-37
2021/01/31 11:43:51;;;;;;;3.55;2.63;;;9.50;68.00;;;;;;5086038;28;20044;-37
2021/01/31 11:46:17;;;;;;;3.13;2.78;;;9.60;68.00;;;;;;5086243;28;20024;-37
2021/01/31 11:48:44;;;;;;;3.72;2.58;;;9.50;67.90;;;;;;5086240;28;20028;-37
2021/01/31 11:51:10;;;;;;;3.72;2.90;;;9.50;68.00;;;;;;5079404;28;20021;-37
2021/01/31 11:53:37;;;;;;;3.15;2.42;;;9.50;68.00;;;;;;5065898;28;20116;-37
2021/01/31 11:56:04;;;;;;;3.00;2.55;;;9.60;68.10;;;;;;5066119;28;20036;-37
2021/01/31 11:58:30;;;;;;;4.45;2.60;;;9.60;68.00;;;;;;5066144;28;20031;-37
2021/01/31 12:00:56;;;;;;;3.42;2.70;;;9.50;68.10;;;;;;5065473;28;20077;-37
2021/01/31 12:03:22;;;;;;;2.65;2.42;;;9.50;68.00;;;;;;5065512;28;20055;-37
2021/01/31 12:05:48;;;;;;;3.22;2.83;;;9.50;68.50;;;;;;5065918;28;20025;-37
2021/01/31 12:08:15;;;;;;;3.40;2.60;;;9.60;68.50;;;;;;5065791;28;20108;-37
2021/01/31 12:10:41;;;;;;;4.10;2.97;;;9.60;68.40;;;;;;5071245;28;20027;-37
2021/01/31 12:13:07;;;;;;;3.63;3.20;;;9.60;68.30;;;;;;5085661;28;20025;-37
2021/01/31 12:15:33;;;;;;;3.30;2.58;;;9.60;68.20;;;;;;5085832;28;20039;-36
2021/01/31 12:17:59;;;;;;;3.45;2.85;;;9.50;68.30;;;;;;5085523;28;20032;-37
2021/01/31 12:20:25;;;;;;;3.60;2.88;;;9.50;68.30;;;;;;5085574;28;20029;-37
2021/01/31 12:22:51;;;;;;;3.20;2.80;;;9.50;68.40;;;;;;5085404;28;20400;-37
2021/01/31 12:25:17;;;;;;;3.10;2.80;;;9.60;68.40;;;;;;5082856;28;20036;-37
2021/01/31 12:27:54;;;;;;;3.15;2.40;;;9.50;68.30;;;;;;5064865;28;20021;-37
2021/01/31 12:30:21;;;;;;;3.55;2.80;;;9.50;68.40;;;;;;5065515;28;20031;-37
2021/01/31 12:32:47;;;;;;;4.03;2.60;;;9.50;68.70;;;;;;5065247;28;20037;-37
2021/01/31 12:35:14;;;;;;;3.30;2.72;;;9.50;68.50;;;;;;5065303;28;20025;-37
2021/01/31 12:37:41;;;;;;;3.55;2.72;;;9.50;68.40;;;;;;5065379;28;20025;-37
2021/01/31 12:40:08;;;;;;;3.90;2.35;;;9.50;68.80;;;;;;5065753;28;20029;-38
2021/01/31 12:42:34;;;;;;;2.78;2.53;;;9.50;68.40;;;;;;5085001;28;20056;-38
2021/01/31 12:45:00;;;;;;;2.50;2.28;;;9.60;69.00;;;;;;5084974;28;20028;-38
2021/01/31 12:47:26;;;;;;;3.88;2.80;;;9.50;68.50;;;;;;5084919;28;20381;-38
2021/01/31 12:49:53;;;;;;;3.22;2.55;;;9.50;69.20;;;;;;5085242;28;20096;-37
2021/01/31 12:52:19;;;;;;;3.15;2.25;;;9.50;68.60;;;;;;5064730;28;20053;-38
2021/01/31 12:54:45;;;;;;;2.70;2.30;;;9.60;68.90;;;;;;5064721;28;20056;-38
2021/01/31 12:57:11;;;;;;;3.50;2.33;;;9.50;68.80;;;;;;5065033;28;20017;-38
2021/01/31 12:59:37;;;;;;;3.35;2.55;;;9.50;68.60;;;;;;5064719;28;20071;-38
2021/01/31 13:02:03;;;;;;;2.92;2.08;;;9.60;68.80;;;;;;5063401;28;20025;-37
2021/01/31 13:04:30;;;;;;;3.38;2.10;;;9.60;69.00;;;;;;5064584;28;20650;-37
2021/01/31 13:06:56;;;;;;;2.75;2.40;;;9.60;69.10;;;;;;5064603;28;20021;-37
2021/01/31 13:09:26;;;;;;;2.60;2.38;;;9.60;68.90;;;;;;5064515;28;20041;-37
2021/01/31 13:11:53;;;;;;;2.63;2.00;;;9.60;69.10;;;;;;5079398;28;20029;-36
2021/01/31 13:14:19;;;;;;;2.42;2.10;;;9.50;68.90;;;;;;5082960;28;20024;-36
2021/01/31 13:16:45;;;;;;;2.80;2.17;;;9.50;68.90;;;;;;5084566;28;20137;-36